Time;durP1;ratioP1;P1;durP2;ratioP2;P2;SDS_P1;SDS_P2;PMS_P1;PMS_P2;Temp;Humidity;BMP_temperature;BMP_pressure;BME280_temperature;BME280_humidity;BME280_pressure;Samples;Min_cycle;Max_cycle;Signal;HPM_P1;HPM_P2
2024/02/23 00:01:25;;;;;;;0.90;0.70;;;6.60;99.90;;;;;;4999791;28;20453;-67
2024/02/23 00:03:51;;;;;;;1.10;0.80;;;6.70;99.90;;;;;;4990673;28;20873;-67
2024/02/23 00:06:18;;;;;;;1.00;0.90;;;6.50;99.90;;;;;;4996170;28;21206;-67
2024/02/23 00:08:46;;;;;;;1.83;0.87;;;6.50;99.90;;;;;;4995420;28;20711;-67
2024/02/23 00:11:13;;;;;;;1.10;0.80;;;6.50;99.90;;;;;;4998479;28;20484;-67
2024/02/23 00:13:40;;;;;;;1.20;0.90;;;6.40;99.90;;;;;;4998041;28;20769;-67
2024/02/23 00:16:07;;;;;;;2.17;0.83;;;6.30;99.90;;;;;;5000388;28;20472;-67
2024/02/23 00:18:33;;;;;;;0.90;0.80;;;6.30;99.90;;;;;;4999135;28;20451;-67
2024/02/23 00:21:00;;;;;;;1.50;0.70;;;6.30;99.90;;;;;;4993997;28;20946;-67
2024/02/23 00:23:28;;;;;;;1.13;0.90;;;6.20;99.90;;;;;;4998756;28;20939;-67
2024/02/23 00:25:56;;;;;;;1.00;0.70;;;6.20;99.90;;;;;;4994651;28;20447;-67
2024/02/23 00:28:23;;;;;;;0.90;0.80;;;6.10;99.90;;;;;;4996467;28;20752;-67
2024/02/23 00:30:50;;;;;;;1.10;1.00;;;6.10;99.90;;;;;;4997053;28;20464;-67
2024/02/23 00:33:16;;;;;;;3.43;0.80;;;6.10;99.90;;;;;;4992941;28;20461;-67
2024/02/23 00:35:43;;;;;;;0.90;0.70;;;6.10;99.90;;;;;;4995459;28;21287;-68
2024/02/23 00:38:11;;;;;;;1.17;0.97;;;6.20;99.90;;;;;;4999272;28;20455;-67
2024/02/23 00:40:37;;;;;;;1.07;0.90;;;6.30;99.90;;;;;;4996610;28;20559;-68
2024/02/23 00:43:06;;;;;;;1.00;0.80;;;6.30;99.90;;;;;;5002249;28;20844;-67
2024/02/23 00:45:32;;;;;;;1.10;1.00;;;6.30;99.90;;;;;;4995220;28;20457;-67
2024/02/23 00:47:59;;;;;;;1.13;1.03;;;6.30;99.90;;;;;;4997108;28;21028;-68
2024/02/23 00:50:27;;;;;;;1.70;1.10;;;6.40;99.90;;;;;;4992634;28;20551;-68
2024/02/23 00:52:53;;;;;;;6.17;1.10;;;6.40;99.90;;;;;;4995504;28;20472;-67
2024/02/23 00:55:20;;;;;;;0.90;0.70;;;6.40;99.90;;;;;;4996142;28;20497;-67
2024/02/23 00:57:47;;;;;;;1.03;0.73;;;6.30;99.90;;;;;;4993694;28;21003;-67
2024/02/23 01:00:16;;;;;;;1.03;0.80;;;6.30;99.90;;;;;;4995717;28;20496;-67
2024/02/23 01:02:43;;;;;;;2.70;0.90;;;6.30;99.90;;;;;;4994207;28;20439;-67
2024/02/23 01:05:10;;;;;;;2.40;1.57;;;6.30;99.90;;;;;;4999519;28;20438;-67
2024/02/23 01:07:37;;;;;;;1.40;1.10;;;6.30;99.90;;;;;;4985130;28;20473;-67
2024/02/23 01:10:05;;;;;;;0.90;0.60;;;6.30;99.90;;;;;;4996160;28;21566;-67
2024/02/23 01:12:31;;;;;;;1.60;1.40;;;6.30;99.90;;;;;;4997333;28;20469;-67
2024/02/23 01:14:58;;;;;;;1.10;1.00;;;6.40;99.90;;;;;;4994875;28;20530;-67
2024/02/23 01:17:26;;;;;;;1.93;1.10;;;6.50;99.90;;;;;;4995316;28;20439;-67
2024/02/23 01:19:53;;;;;;;1.33;1.00;;;6.50;99.90;;;;;;4992434;28;20485;-67
2024/02/23 01:22:20;;;;;;;1.37;1.27;;;6.50;99.90;;;;;;4997562;28;20465;-67
2024/02/23 01:24:46;;;;;;;1.50;1.10;;;6.50;99.90;;;;;;4995547;28;20472;-66
2024/02/23 01:27:13;;;;;;;1.10;1.00;;;6.50;99.90;;;;;;4995627;28;20460;-67
2024/02/23 01:29:40;;;;;;;1.33;1.20;;;6.50;99.90;;;;;;4994369;28;20800;-67
2024/02/23 01:32:07;;;;;;;4.40;0.93;;;6.50;99.90;;;;;;4993794;28;20435;-66
2024/02/23 01:34:35;;;;;;;0.90;0.70;;;6.50;99.90;;;;;;4997516;28;20781;-66
2024/02/23 01:37:02;;;;;;;1.00;0.90;;;6.50;99.90;;;;;;4993884;28;20479;-66
2024/02/23 01:39:29;;;;;;;1.20;1.00;;;6.50;99.90;;;;;;4993417;28;20477;-66
2024/02/23 01:41:56;;;;;;;1.10;0.90;;;6.60;99.90;;;;;;4995842;28;20476;-68
2024/02/23 01:44:22;;;;;;;1.13;0.90;;;6.50;99.90;;;;;;4992268;28;20431;-67
2024/02/23 01:46:51;;;;;;;1.50;1.17;;;6.60;99.90;;;;;;4985034;28;20469;-67
2024/02/23 01:49:18;;;;;;;1.40;1.00;;;6.60;99.90;;;;;;4989150;28;20484;-68
2024/02/23 01:51:46;;;;;;;1.60;1.20;;;6.60;99.90;;;;;;4990269;28;20492;-67
2024/02/23 01:54:13;;;;;;;0.90;0.80;;;6.50;99.90;;;;;;4984463;28;20939;-67
2024/02/23 01:56:40;;;;;;;1.50;0.93;;;6.60;99.90;;;;;;4988509;28;20457;-67
2024/02/23 01:59:07;;;;;;;1.10;0.90;;;6.60;99.90;;;;;;4995425;28;20489;-67
2024/02/23 02:01:34;;;;;;;1.07;0.97;;;6.60;99.90;;;;;;4994140;28;20466;-67
2024/02/23 02:04:01;;;;;;;1.40;0.73;;;6.70;99.90;;;;;;4988616;28;20484;-67
2024/02/23 02:06:27;;;;;;;0.90;0.80;;;6.60;99.90;;;;;;4991617;28;20590;-67
2024/02/23 02:08:56;;;;;;;1.00;0.90;;;6.50;99.90;;;;;;4993906;28;20514;-67
2024/02/23 02:11:22;;;;;;;0.90;0.60;;;6.60;99.90;;;;;;4989743;28;21343;-67
2024/02/23 02:13:49;;;;;;;1.40;1.10;;;6.60;99.90;;;;;;4988204;28;20468;-67
2024/02/23 02:16:16;;;;;;;0.90;0.70;;;6.60;99.90;;;;;;4990026;28;20431;-67
2024/02/23 02:18:44;;;;;;;1.00;0.87;;;6.60;99.90;;;;;;4999525;28;20439;-67
2024/02/23 02:21:11;;;;;;;0.90;0.80;;;6.50;99.90;;;;;;4997242;28;20896;-67
2024/02/23 02:23:38;;;;;;;1.00;0.90;;;6.50;99.90;;;;;;4997948;28;20764;-67
2024/02/23 02:26:06;;;;;;;1.20;1.00;;;6.50;99.90;;;;;;4995078;28;20480;-67
2024/02/23 02:28:34;;;;;;;1.10;0.77;;;6.60;99.90;;;;;;4991654;28;20472;-67
2024/02/23 02:31:01;;;;;;;1.10;0.90;;;6.50;99.90;;;;;;4996618;28;20480;-67
2024/02/23 02:33:27;;;;;;;1.10;0.70;;;6.60;99.90;;;;;;4995704;28;20436;-67
2024/02/23 02:35:54;;;;;;;1.20;1.07;;;6.60;99.90;;;;;;4999302;28;22832;-67
2024/02/23 02:38:21;;;;;;;2.10;1.10;;;6.60;99.90;;;;;;4999777;28;20922;-68
2024/02/23 02:40:47;;;;;;;1.37;0.90;;;6.60;99.90;;;;;;5001361;28;20468;-68
2024/02/23 02:43:16;;;;;;;0.90;0.70;;;6.50;99.90;;;;;;5001573;28;20464;-67
2024/02/23 02:45:43;;;;;;;1.10;0.90;;;6.50;99.90;;;;;;4993772;28;20469;-67
2024/02/23 02:48:10;;;;;;;1.10;0.80;;;6.50;99.90;;;;;;4996452;28;20473;-67
2024/02/23 02:50:37;;;;;;;1.00;0.90;;;6.60;99.90;;;;;;4997009;28;20550;-67
2024/02/23 02:53:04;;;;;;;1.17;1.07;;;6.60;99.90;;;;;;5003389;28;20944;-67
2024/02/23 02:55:30;;;;;;;1.00;0.80;;;6.50;99.90;;;;;;5001498;28;20458;-67
2024/02/23 02:57:57;;;;;;;1.87;1.13;;;6.60;99.90;;;;;;4999357;28;20472;-67
2024/02/23 03:00:25;;;;;;;1.20;0.80;;;6.70;99.90;;;;;;4998692;28;20480;-67
2024/02/23 03:02:52;;;;;;;1.00;0.83;;;6.60;99.90;;;;;;4999443;28;20457;-67
2024/02/23 03:05:19;;;;;;;1.10;1.00;;;6.60;99.90;;;;;;5003850;28;20979;-67
2024/02/23 03:07:46;;;;;;;1.00;0.70;;;6.60;99.90;;;;;;4998388;28;21016;-67
2024/02/23 03:10:12;;;;;;;0.90;0.70;;;6.60;99.90;;;;;;4997686;28;20614;-67
2024/02/23 03:12:39;;;;;;;1.43;0.83;;;6.50;99.90;;;;;;4998610;28;20458;-67
2024/02/23 03:15:07;;;;;;;1.27;0.90;;;6.50;99.90;;;;;;4996671;28;20485;-67
2024/02/23 03:17:35;;;;;;;1.70;1.60;;;6.60;99.90;;;;;;4999989;28;21030;-67
2024/02/23 03:20:02;;;;;;;0.90;0.70;;;6.60;99.90;;;;;;5001665;28;20485;-67
2024/02/23 03:22:28;;;;;;;1.73;1.07;;;6.50;99.90;;;;;;5003798;28;20544;-67
2024/02/23 03:24:55;;;;;;;1.00;0.70;;;6.50;99.90;;;;;;4999389;28;20457;-67
2024/02/23 03:27:29;;;;;;;1.97;0.97;;;6.50;99.90;;;;;;5002892;28;20462;-67
2024/02/23 03:29:56;;;;;;;1.77;0.80;;;6.50;99.90;;;;;;4995649;28;20543;-68
2024/02/23 03:32:23;;;;;;;0.90;0.70;;;6.50;99.90;;;;;;4994862;28;20849;-67
2024/02/23 03:34:51;;;;;;;1.20;0.70;;;6.50;99.90;;;;;;4996677;28;20473;-67
2024/02/23 03:37:17;;;;;;;1.67;1.20;;;6.40;99.90;;;;;;5000315;28;20799;-68
2024/02/23 03:39:44;;;;;;;0.90;0.77;;;6.30;99.90;;;;;;5000234;28;20484;-67
2024/02/23 03:42:11;;;;;;;1.00;0.80;;;6.30;99.90;;;;;;5000180;28;20457;-67
2024/02/23 03:44:38;;;;;;;0.93;0.83;;;6.30;99.90;;;;;;4997774;28;20436;-67
2024/02/23 03:47:05;;;;;;;0.90;0.60;;;6.30;99.90;;;;;;4997537;28;20466;-68
2024/02/23 03:49:31;;;;;;;0.90;0.70;;;6.30;99.90;;;;;;4993918;28;21058;-67
2024/02/23 03:51:59;;;;;;;1.20;0.80;;;6.30;99.90;;;;;;4996085;28;20481;-68
2024/02/23 03:54:26;;;;;;;1.30;0.70;;;6.30;99.90;;;;;;5000398;28;20975;-67
2024/02/23 03:56:53;;;;;;;1.70;1.47;;;6.30;99.90;;;;;;4995732;28;20461;-67
2024/02/23 03:59:20;;;;;;;0.90;0.70;;;6.30;99.90;;;;;;4998908;28;20506;-67
2024/02/23 04:01:46;;;;;;;1.20;1.00;;;6.30;99.90;;;;;;4997279;28;20543;-67
2024/02/23 04:04:13;;;;;;;0.90;0.70;;;6.40;99.90;;;;;;4997704;28;20571;-67
2024/02/23 04:06:40;;;;;;;0.90;0.60;;;6.50;99.90;;;;;;4992751;28;20446;-67
2024/02/23 04:09:09;;;;;;;0.90;0.60;;;6.50;99.90;;;;;;4993222;28;20948;-67
2024/02/23 04:11:36;;;;;;;1.20;0.90;;;6.50;99.90;;;;;;4995661;28;20635;-67
2024/02/23 04:14:05;;;;;;;5.90;1.67;;;6.50;99.90;;;;;;4997856;28;20507;-67
2024/02/23 04:16:32;;;;;;;3.07;0.90;;;6.50;99.90;;;;;;4991170;28;20515;-67
2024/02/23 04:19:00;;;;;;;0.93;0.70;;;6.50;99.90;;;;;;4986163;28;20501;-67
2024/02/23 04:21:26;;;;;;;0.90;0.73;;;6.50;99.90;;;;;;4994365;28;20465;-68
2024/02/23 04:23:53;;;;;;;0.90;0.70;;;6.50;99.90;;;;;;4993617;28;21052;-67
2024/02/23 04:26:21;;;;;;;0.90;0.70;;;6.50;99.90;;;;;;4994667;28;20476;-68
2024/02/23 04:28:48;;;;;;;1.23;1.13;;;6.50;99.90;;;;;;4989102;28;20488;-68
2024/02/23 04:31:15;;;;;;;1.40;1.03;;;6.50;99.90;;;;;;4992401;28;20997;-67
2024/02/23 04:33:41;;;;;;;1.53;0.73;;;6.60;99.90;;;;;;4995135;28;20472;-67
2024/02/23 04:36:09;;;;;;;1.00;0.80;;;6.50;99.90;;;;;;4992916;28;20982;-68
2024/02/23 04:38:35;;;;;;;0.90;0.70;;;6.60;99.90;;;;;;4995864;28;20456;-67
2024/02/23 04:41:04;;;;;;;1.23;0.90;;;6.70;99.90;;;;;;4987942;28;21028;-68
2024/02/23 04:43:32;;;;;;;1.00;0.87;;;6.70;99.90;;;;;;4994011;28;20956;-67
2024/02/23 04:45:58;;;;;;;1.00;0.70;;;6.70;99.90;;;;;;4992638;28;20447;-67
2024/02/23 04:48:25;;;;;;;2.60;0.80;;;6.70;99.90;;;;;;5000617;28;20487;-67
2024/02/23 04:50:52;;;;;;;1.10;0.90;;;6.60;99.90;;;;;;4997145;28;20436;-67
2024/02/23 04:53:19;;;;;;;0.90;0.73;;;6.60;99.90;;;;;;5001006;28;20451;-67
2024/02/23 04:55:46;;;;;;;1.00;0.70;;;6.60;99.90;;;;;;4995452;28;20473;-67
2024/02/23 04:58:12;;;;;;;1.90;0.87;;;6.70;99.90;;;;;;4993630;28;20501;-67
2024/02/23 05:00:40;;;;;;;1.53;0.93;;;6.70;99.90;;;;;;4992712;28;20479;-67
2024/02/23 05:03:07;;;;;;;1.83;1.17;;;6.60;99.90;;;;;;5176909;23;20530;-70
2024/02/23 05:05:36;;;;;;;1.57;1.47;;;6.60;99.90;;;;;;4993975;28;20473;-69
2024/02/23 05:08:03;;;;;;;4.43;1.00;;;6.70;99.90;;;;;;4992406;28;20465;-70
2024/02/23 05:10:30;;;;;;;1.00;0.90;;;6.70;99.90;;;;;;4976963;28;20455;-69
2024/02/23 05:12:56;;;;;;;1.63;1.03;;;6.70;99.90;;;;;;4973867;28;20778;-69
2024/02/23 05:15:23;;;;;;;1.10;0.97;;;6.60;99.90;;;;;;4979739;28;20470;-69
2024/02/23 05:17:51;;;;;;;0.93;0.63;;;6.70;99.90;;;;;;4975111;28;20872;-70
2024/02/23 05:20:18;;;;;;;0.90;0.70;;;6.70;99.90;;;;;;4981631;28;20441;-69
2024/02/23 05:22:44;;;;;;;1.20;0.90;;;6.70;99.90;;;;;;4971899;28;20458;-70
2024/02/23 05:25:11;;;;;;;0.90;0.60;;;6.70;99.90;;;;;;4973772;28;20843;-69
2024/02/23 05:27:38;;;;;;;0.90;0.60;;;6.60;99.90;;;;;;4974519;28;20466;-69
2024/02/23 05:30:11;;;;;;;4.77;0.90;;;6.60;99.90;;;;;;4975555;28;20467;-70
2024/02/23 05:32:38;;;;;;;1.83;1.00;;;6.60;99.90;;;;;;4974834;28;20987;-69
2024/02/23 05:35:07;;;;;;;1.10;0.87;;;6.60;99.90;;;;;;4978988;28;20440;-71
2024/02/23 05:37:33;;;;;;;1.00;0.80;;;6.60;99.90;;;;;;4980089;28;20469;-70
2024/02/23 05:40:03;;;;;;;4.50;1.27;;;6.60;99.90;;;;;;4980659;28;20502;-69
2024/02/23 05:42:30;;;;;;;1.70;1.47;;;6.60;99.90;;;;;;4977094;28;21603;-69
2024/02/23 05:44:57;;;;;;;1.00;0.73;;;6.60;99.90;;;;;;4977489;28;20550;-70
2024/02/23 05:47:23;;;;;;;1.50;1.00;;;6.60;99.90;;;;;;4975093;28;21098;-69
2024/02/23 05:49:51;;;;;;;1.20;1.10;;;6.60;99.90;;;;;;4973526;28;20482;-70
2024/02/23 05:52:19;;;;;;;0.90;0.60;;;6.60;99.90;;;;;;4979454;28;20494;-70
2024/02/23 05:54:46;;;;;;;1.00;0.70;;;6.60;99.90;;;;;;4981382;28;20472;-68
2024/02/23 05:57:13;;;;;;;0.90;0.60;;;6.70;99.90;;;;;;4979917;28;20448;-70
2024/02/23 05:59:40;;;;;;;0.97;0.70;;;6.80;99.90;;;;;;4969775;28;20498;-70
2024/02/23 06:02:06;;;;;;;1.00;0.87;;;6.80;99.90;;;;;;4978159;28;20463;-69
2024/02/23 06:04:33;;;;;;;1.30;0.90;;;6.60;99.90;;;;;;4977330;28;20566;-70
2024/02/23 06:07:00;;;;;;;1.90;1.37;;;6.60;99.90;;;;;;4979092;28;21163;-69
2024/02/23 06:09:28;;;;;;;3.27;1.10;;;6.70;99.90;;;;;;4974358;28;20972;-69
2024/02/23 06:11:55;;;;;;;0.90;0.70;;;6.70;99.90;;;;;;4976549;28;20501;-70
2024/02/23 06:14:23;;;;;;;3.20;0.83;;;6.60;99.90;;;;;;4978085;28;20953;-69
2024/02/23 06:16:49;;;;;;;1.53;0.90;;;6.60;99.90;;;;;;4976899;28;20482;-69
2024/02/23 06:19:16;;;;;;;1.07;0.97;;;6.40;99.90;;;;;;4976729;28;20544;-69
2024/02/23 06:21:43;;;;;;;5.80;1.10;;;6.40;99.90;;;;;;4980695;28;20469;-69
2024/02/23 06:24:09;;;;;;;1.17;0.90;;;6.40;99.90;;;;;;4979315;28;20465;-68
2024/02/23 06:26:37;;;;;;;1.00;0.80;;;6.40;99.90;;;;;;4971600;28;20461;-70
2024/02/23 06:29:05;;;;;;;1.40;0.90;;;6.40;99.90;;;;;;4981872;28;20478;-69
2024/02/23 06:31:34;;;;;;;2.10;0.90;;;6.30;99.90;;;;;;4975883;28;20441;-69
2024/02/23 06:34:00;;;;;;;2.40;1.17;;;6.30;99.90;;;;;;4974425;28;20495;-69
2024/02/23 06:36:27;;;;;;;1.50;1.00;;;6.30;99.90;;;;;;4974526;28;20449;-70
2024/02/23 06:38:54;;;;;;;1.10;0.80;;;6.30;99.90;;;;;;4976647;28;20822;-70
2024/02/23 06:41:20;;;;;;;1.87;1.00;;;6.30;99.90;;;;;;4974392;28;20460;-70
2024/02/23 06:43:48;;;;;;;3.33;1.00;;;6.30;99.90;;;;;;4975081;28;20813;-70
2024/02/23 06:46:15;;;;;;;0.90;0.60;;;6.30;99.90;;;;;;4976172;28;20458;-68
2024/02/23 06:48:42;;;;;;;1.00;0.87;;;6.40;99.90;;;;;;4976351;28;20488;-70
2024/02/23 06:51:09;;;;;;;0.90;0.70;;;6.40;99.90;;;;;;4978046;28;20486;-69
2024/02/23 06:53:36;;;;;;;3.10;1.50;;;6.40;99.90;;;;;;4984198;28;20540;-69
2024/02/23 06:56:03;;;;;;;2.13;1.00;;;6.40;99.90;;;;;;4979985;28;20452;-69
2024/02/23 06:58:30;;;;;;;3.73;1.10;;;6.50;99.90;;;;;;4977086;28;20583;-70
2024/02/23 07:00:58;;;;;;;2.03;1.83;;;6.60;99.90;;;;;;4983104;28;20462;-69
2024/02/23 07:03:25;;;;;;;6.63;1.40;;;6.50;99.90;;;;;;4981804;28;20490;-68
2024/02/23 07:05:51;;;;;;;1.53;0.80;;;6.60;99.90;;;;;;4978763;28;20476;-70
2024/02/23 07:08:19;;;;;;;1.33;1.03;;;6.70;99.90;;;;;;4981324;28;20514;-70
2024/02/23 07:10:45;;;;;;;1.77;1.43;;;6.60;99.90;;;;;;4984833;28;20563;-70
2024/02/23 07:13:12;;;;;;;1.10;0.80;;;6.60;99.90;;;;;;4978578;28;20486;-70
2024/02/23 07:15:39;;;;;;;1.07;0.97;;;6.70;99.90;;;;;;4979665;28;20471;-70
2024/02/23 07:18:08;;;;;;;3.03;1.03;;;6.80;99.90;;;;;;4979534;28;20448;-70
2024/02/23 07:20:35;;;;;;;1.17;0.80;;;6.90;99.90;;;;;;4978173;28;20470;-69
2024/02/23 07:23:02;;;;;;;25.53;1.40;;;6.90;99.90;;;;;;4982572;28;20552;-69
2024/02/23 07:25:29;;;;;;;2.30;0.90;;;6.90;99.90;;;;;;4974564;28;20470;-68
2024/02/23 07:27:56;;;;;;;3.40;3.10;;;7.00;99.90;;;;;;4980394;28;20470;-70
2024/02/23 07:30:23;;;;;;;1.53;1.43;;;7.00;99.90;;;;;;4980273;28;20831;-69
2024/02/23 07:32:50;;;;;;;2.90;1.00;;;7.10;99.90;;;;;;4984345;28;20485;-70
2024/02/23 07:35:18;;;;;;;0.90;0.70;;;7.10;99.90;;;;;;4974959;28;20433;-69
2024/02/23 07:37:45;;;;;;;1.10;0.90;;;7.30;99.90;;;;;;4977270;28;20478;-71
2024/02/23 07:40:12;;;;;;;2.70;1.30;;;7.50;99.90;;;;;;4974421;28;20580;-70
2024/02/23 07:42:39;;;;;;;1.17;1.07;;;7.70;99.90;;;;;;4977400;28;20473;-70
2024/02/23 07:45:09;;;;;;;1.00;0.80;;;8.00;99.90;;;;;;4976525;28;20481;-70
2024/02/23 07:47:35;;;;;;;2.03;1.50;;;8.10;99.90;;;;;;4972700;28;20530;-69
2024/02/23 07:50:02;;;;;;;2.50;1.03;;;7.90;99.90;;;;;;4973240;28;20497;-70
2024/02/23 07:52:30;;;;;;;2.90;0.90;;;7.70;99.90;;;;;;4978166;28;20494;-70
2024/02/23 07:54:57;;;;;;;1.57;1.17;;;7.50;99.90;;;;;;4981928;28;20469;-70
2024/02/23 07:57:24;;;;;;;1.30;0.97;;;7.40;99.90;;;;;;4981289;28;20815;-70
2024/02/23 07:59:51;;;;;;;1.10;0.90;;;7.60;99.90;;;;;;4981037;28;20508;-69
2024/02/23 08:02:17;;;;;;;1.00;0.70;;;8.20;99.90;;;;;;4977944;28;20462;-70
2024/02/23 08:04:47;;;;;;;4.30;1.00;;;8.60;99.90;;;;;;4977153;28;20479;-71
2024/02/23 08:07:14;;;;;;;3.13;0.90;;;8.80;99.90;;;;;;4979892;28;20608;-70
2024/02/23 08:09:42;;;;;;;2.33;1.33;;;8.60;99.90;;;;;;4980571;28;20544;-71
2024/02/23 08:12:11;;;;;;;1.00;0.77;;;8.30;99.90;;;;;;4981394;28;20497;-70
2024/02/23 08:14:37;;;;;;;1.00;0.80;;;8.20;99.90;;;;;;4981283;28;20463;-70
2024/02/23 08:17:04;;;;;;;0.90;0.80;;;8.10;99.90;;;;;;4979075;28;20490;-70
2024/02/23 08:19:31;;;;;;;1.57;1.07;;;7.90;99.90;;;;;;4984900;28;20494;-69
2024/02/23 08:21:58;;;;;;;2.13;0.83;;;8.00;99.90;;;;;;4979781;28;20477;-69
2024/02/23 08:24:26;;;;;;;4.33;1.90;;;8.10;99.90;;;;;;4976546;28;20470;-69
2024/02/23 08:26:54;;;;;;;2.43;1.17;;;8.10;99.90;;;;;;4979854;28;20482;-70
2024/02/23 08:29:21;;;;;;;1.33;0.80;;;8.20;99.90;;;;;;4978723;28;20474;-69
2024/02/23 08:31:47;;;;;;;1.30;1.20;;;8.80;99.90;;;;;;4975527;28;20514;-70
2024/02/23 08:34:14;;;;;;;1.80;0.87;;;9.60;99.90;;;;;;4977137;28;20486;-71
2024/02/23 08:36:41;;;;;;;1.87;0.90;;;10.40;99.90;;;;;;4980493;28;20474;-70
2024/02/23 08:39:08;;;;;;;2.63;1.10;;;10.50;99.90;;;;;;4979099;28;20482;-71
2024/02/23 08:41:35;;;;;;;3.13;1.30;;;9.80;99.90;;;;;;4978863;28;20534;-70
2024/02/23 08:44:04;;;;;;;1.50;1.00;;;9.20;99.90;;;;;;4981756;28;20496;-70
2024/02/23 08:46:31;;;;;;;3.73;1.10;;;8.80;99.90;;;;;;4975067;28;20473;-69
2024/02/23 08:48:58;;;;;;;1.30;0.83;;;8.60;99.90;;;;;;4980458;28;20485;-70
2024/02/23 08:51:24;;;;;;;0.90;0.70;;;8.60;99.90;;;;;;4978511;28;20444;-70
2024/02/23 08:53:51;;;;;;;1.10;0.70;;;8.40;99.90;;;;;;4971285;28;20545;-69
2024/02/23 08:56:18;;;;;;;1.37;0.97;;;8.40;99.90;;;;;;4976897;28;20814;-70
2024/02/23 08:58:44;;;;;;;1.13;0.80;;;8.40;99.90;;;;;;4976621;28;20464;-69
2024/02/23 09:01:12;;;;;;;1.83;1.00;;;8.60;99.90;;;;;;4979268;28;21040;-71
2024/02/23 09:03:39;;;;;;;1.20;0.80;;;8.60;99.90;;;;;;4977067;28;20469;-70
2024/02/23 09:06:06;;;;;;;0.90;0.60;;;9.00;99.90;;;;;;4976305;28;20462;-70
2024/02/23 09:08:33;;;;;;;1.73;1.10;;;9.40;99.90;;;;;;4978695;28;20483;-70
2024/02/23 09:10:59;;;;;;;1.07;0.83;;;9.20;99.90;;;;;;4977903;28;20469;-70
2024/02/23 09:13:27;;;;;;;3.30;1.00;;;8.70;99.90;;;;;;4975578;28;20506;-70
2024/02/23 09:15:54;;;;;;;1.10;0.97;;;8.60;99.90;;;;;;4976028;28;20466;-69
2024/02/23 09:18:22;;;;;;;1.73;0.80;;;8.40;99.90;;;;;;4976838;28;20581;-70
2024/02/23 09:20:49;;;;;;;5.07;1.00;;;8.30;99.90;;;;;;4979988;28;20441;-71
2024/02/23 09:23:15;;;;;;;1.20;1.00;;;8.30;99.90;;;;;;4977940;28;20485;-70
2024/02/23 09:25:42;;;;;;;0.90;0.70;;;8.20;99.90;;;;;;4976264;28;20475;-71
2024/02/23 09:28:11;;;;;;;1.87;1.77;;;8.20;99.90;;;;;;4975069;28;20470;-70
2024/02/23 09:30:37;;;;;;;1.10;0.87;;;8.20;99.90;;;;;;4975197;28;20498;-70
2024/02/23 09:33:05;;;;;;;3.80;1.20;;;8.20;99.90;;;;;;4978600;28;20512;-71
2024/02/23 09:35:33;;;;;;;10.03;1.07;;;8.30;99.90;;;;;;4977484;28;20953;-71
2024/02/23 09:37:59;;;;;;;1.83;1.20;;;8.50;99.90;;;;;;4972033;28;20471;-70
2024/02/23 09:40:26;;;;;;;1.20;1.03;;;8.50;99.90;;;;;;4971871;28;20463;-70
2024/02/23 09:42:57;;;;;;;0.90;0.70;;;8.60;99.90;;;;;;4980353;28;20458;-69
2024/02/23 09:45:25;;;;;;;1.10;0.70;;;8.80;99.90;;;;;;4976724;28;20496;-70
2024/02/23 09:47:54;;;;;;;1.03;0.80;;;8.90;99.90;;;;;;4981013;28;20466;-70
2024/02/23 09:50:23;;;;;;;1.20;0.87;;;9.00;99.90;;;;;;4976813;28;20590;-69
2024/02/23 09:52:51;;;;;;;1.00;0.80;;;8.80;99.90;;;;;;4973481;28;21019;-70
2024/02/23 09:55:18;;;;;;;1.63;1.00;;;8.70;99.90;;;;;;4976601;28;20458;-69
2024/02/23 09:57:46;;;;;;;1.17;0.87;;;8.70;99.90;;;;;;4972715;28;20470;-71
2024/02/23 10:00:13;;;;;;;2.50;1.13;;;8.60;99.90;;;;;;4972599;28;20485;-70
2024/02/23 10:02:41;;;;;;;2.30;1.47;;;8.70;99.90;;;;;;4975068;28;20434;-70
2024/02/23 10:05:10;;;;;;;1.10;0.80;;;8.80;99.90;;;;;;4980406;28;20509;-69
2024/02/23 10:07:37;;;;;;;1.23;0.80;;;8.90;99.90;;;;;;4978256;28;20966;-70
2024/02/23 10:10:08;;;;;;;1.53;1.10;;;9.00;99.90;;;;;;4970676;28;20808;-70
2024/02/23 10:12:35;;;;;;;4.20;1.13;;;9.00;99.90;;;;;;4974323;28;20477;-69
2024/02/23 10:15:03;;;;;;;2.60;0.70;;;9.00;99.90;;;;;;4980117;28;20566;-68
2024/02/23 10:17:30;;;;;;;10.27;0.97;;;8.90;99.90;;;;;;4979191;28;20490;-71
2024/02/23 10:19:57;;;;;;;1.33;1.00;;;8.70;99.90;;;;;;4974671;28;20482;-71
2024/02/23 10:22:25;;;;;;;0.90;0.60;;;8.90;99.90;;;;;;4978033;28;20437;-70
2024/02/23 10:24:51;;;;;;;2.23;1.00;;;8.90;99.90;;;;;;4976233;28;20493;-71
2024/02/23 10:27:19;;;;;;;0.90;0.70;;;9.10;99.90;;;;;;4982267;28;20504;-70
2024/02/23 10:29:50;;;;;;;1.73;1.30;;;9.20;99.90;;;;;;4981418;28;20479;-69
2024/02/23 10:32:19;;;;;;;1.73;1.10;;;9.00;99.90;;;;;;4977154;28;20443;-70
2024/02/23 10:34:48;;;;;;;7.83;1.27;;;9.00;99.90;;;;;;4971228;28;20479;-69
2024/02/23 10:37:15;;;;;;;10.00;0.90;;;9.10;99.90;;;;;;4981250;28;20470;-70
2024/02/23 10:39:43;;;;;;;2.80;1.00;;;9.30;99.90;;;;;;4980306;28;20497;-69
2024/02/23 10:42:11;;;;;;;1.97;1.10;;;9.40;99.90;;;;;;4979659;28;20490;-70
2024/02/23 10:44:41;;;;;;;3.67;1.40;;;9.30;99.90;;;;;;4980436;28;21270;-71
2024/02/23 10:47:08;;;;;;;1.67;1.10;;;9.40;99.90;;;;;;4978598;28;20470;-70
2024/02/23 10:49:36;;;;;;;2.60;0.93;;;9.30;99.90;;;;;;4980233;28;21012;-69
2024/02/23 10:52:03;;;;;;;3.63;1.37;;;9.20;99.90;;;;;;4979693;28;20477;-71
2024/02/23 10:54:33;;;;;;;3.43;1.20;;;9.20;99.90;;;;;;4976708;28;20851;-69
2024/02/23 10:57:02;;;;;;;1.33;0.90;;;9.40;99.90;;;;;;4980494;28;20463;-69
2024/02/23 10:59:28;;;;;;;3.63;0.70;;;9.50;99.90;;;;;;4979230;28;20459;-69
2024/02/23 11:02:00;;;;;;;1.10;0.80;;;9.50;99.90;;;;;;4981738;28;21182;-70
2024/02/23 11:04:28;;;;;;;1.20;0.77;;;9.30;99.90;;;;;;4977869;28;20466;-70
2024/02/23 11:06:58;;;;;;;1.00;0.80;;;9.50;99.90;;;;;;4975951;28;20475;-69
2024/02/23 11:09:25;;;;;;;0.90;0.70;;;9.40;99.90;;;;;;4981644;28;20596;-69
2024/02/23 11:11:54;;;;;;;1.00;0.70;;;9.40;99.90;;;;;;4977586;28;20470;-69
2024/02/23 11:14:31;;;;;;;1.20;0.80;;;9.50;99.90;;;;;;4979701;28;21009;-70
2024/02/23 11:17:00;;;;;;;1.20;0.90;;;9.80;99.90;;;;;;4983683;28;20557;-69
2024/02/23 11:19:34;;;;;;;1.50;1.23;;;10.10;99.90;;;;;;4982454;28;20486;-69
2024/02/23 11:22:01;;;;;;;1.10;0.77;;;10.60;99.90;;;;;;4979294;28;20966;-70
2024/02/23 11:24:30;;;;;;;5.83;1.10;;;10.90;99.90;;;;;;4977930;28;20466;-70
2024/02/23 11:26:58;;;;;;;2.03;0.80;;;11.50;99.90;;;;;;4981916;28;20532;-69
2024/02/23 11:29:28;;;;;;;1.00;0.70;;;11.30;99.90;;;;;;4979145;28;20477;-69
2024/02/23 11:32:00;;;;;;;4.00;1.00;;;11.10;99.90;;;;;;4978862;28;20471;-71
2024/02/23 11:34:28;;;;;;;1.13;1.00;;;10.80;99.90;;;;;;4981460;28;20482;-69
2024/02/23 11:36:56;;;;;;;0.90;0.60;;;10.30;99.90;;;;;;4983544;28;20471;-69
2024/02/23 11:39:23;;;;;;;1.20;1.10;;;10.00;99.90;;;;;;4984613;28;20497;-70
2024/02/23 11:41:50;;;;;;;2.17;1.03;;;10.00;99.90;;;;;;4981574;28;20543;-69
2024/02/23 11:44:18;;;;;;;0.90;0.70;;;9.90;99.90;;;;;;4982776;28;21898;-70
2024/02/23 11:46:45;;;;;;;0.93;0.67;;;9.80;99.90;;;;;;4977969;28;20511;-70
2024/02/23 11:49:13;;;;;;;1.00;0.80;;;9.70;99.90;;;;;;4982920;28;20486;-70
2024/02/23 11:51:42;;;;;;;1.00;0.70;;;9.70;99.90;;;;;;4982154;28;20906;-69
2024/02/23 11:54:08;;;;;;;0.90;0.70;;;9.60;99.90;;;;;;4982157;28;20497;-70
2024/02/23 11:56:36;;;;;;;1.30;0.90;;;9.60;99.90;;;;;;4982322;28;20857;-70
2024/02/23 11:59:03;;;;;;;6.37;1.20;;;9.70;99.90;;;;;;4982761;28;20481;-72
2024/02/23 12:01:32;;;;;;;0.90;0.70;;;9.80;99.90;;;;;;4984275;28;20454;-69
2024/02/23 12:03:58;;;;;;;1.10;0.77;;;10.00;99.90;;;;;;4981784;28;20556;-69
2024/02/23 12:06:29;;;;;;;1.07;0.83;;;9.90;99.90;;;;;;4979469;28;20812;-70
2024/02/23 12:08:57;;;;;;;0.97;0.73;;;9.70;99.90;;;;;;4978083;28;20598;-69
2024/02/23 12:11:24;;;;;;;1.90;0.87;;;9.60;99.90;;;;;;4982230;28;20466;-71
2024/02/23 12:13:52;;;;;;;4.20;1.00;;;9.40;99.90;;;;;;4980164;28;20457;-71
2024/02/23 12:16:18;;;;;;;1.00;0.80;;;9.30;99.90;;;;;;4976749;28;20444;-70
2024/02/23 12:18:45;;;;;;;5.00;2.40;;;9.40;99.90;;;;;;4982420;28;20509;-70
2024/02/23 12:21:13;;;;;;;1.07;0.80;;;9.40;99.90;;;;;;4983997;28;20475;-70
2024/02/23 12:23:41;;;;;;;0.90;0.60;;;9.40;99.90;;;;;;4986292;28;20470;-69
2024/02/23 12:26:10;;;;;;;2.70;0.90;;;9.30;99.90;;;;;;4984213;28;20463;-70
2024/02/23 12:28:37;;;;;;;1.23;0.80;;;9.30;99.90;;;;;;4981682;28;21244;-70
2024/02/23 12:31:05;;;;;;;1.30;0.90;;;9.40;99.90;;;;;;4987424;28;20458;-69
2024/02/23 12:33:34;;;;;;;1.70;0.77;;;9.50;99.90;;;;;;4983374;28;20485;-70
2024/02/23 12:36:01;;;;;;;1.57;0.80;;;9.70;99.90;;;;;;4985960;28;20462;-70
2024/02/23 12:38:29;;;;;;;1.53;0.97;;;9.60;99.90;;;;;;4983094;28;20500;-69
2024/02/23 12:40:56;;;;;;;1.40;0.90;;;9.40;99.90;;;;;;4983675;28;20461;-70
2024/02/23 12:43:24;;;;;;;0.90;0.70;;;9.40;99.90;;;;;;4982022;28;20455;-70
2024/02/23 12:45:51;;;;;;;1.67;1.57;;;9.40;99.90;;;;;;4986061;28;20467;-69
2024/02/23 12:48:18;;;;;;;1.10;0.70;;;9.50;99.90;;;;;;4982180;28;20482;-69
2024/02/23 12:50:45;;;;;;;2.07;0.80;;;9.40;99.90;;;;;;4983870;28;20471;-68
2024/02/23 12:53:32;;;;;;;1.20;0.67;;;9.40;99.90;;;;;;4983106;28;20850;-70
2024/02/23 12:55:59;;;;;;;1.43;1.13;;;9.40;99.90;;;;;;4985046;28;20454;-69